Time;durP1;ratioP1;P1;durP2;ratioP2;P2;SDS_P1;SDS_P2;PMS_P1;PMS_P2;Temp;Humidity;BMP_temperature;BMP_pressure;BME280_temperature;BME280_humidity;BME280_pressure;Samples;Min_cycle;Max_cycle;Signal;HPM_P1;HPM_P2
2023/06/04 00:00:05;;;;;;;3.42;1.55;;;;;;;;;;2104039;28;20037;-64
2023/06/04 00:01:24;;;;;;;1.50;1.40;;;;;;;;;;2103881;28;20540;-64
2023/06/04 00:02:43;;;;;;;1.63;1.30;;;;;;;;;;2104763;28;20106;-64
2023/06/04 00:04:02;;;;;;;1.40;1.30;;;;;;;;;;2105318;28;20381;-65
2023/06/04 00:05:25;;;;;;;1.35;1.23;;;;;;;;;;2105411;28;20381;-64
2023/06/04 00:06:43;;;;;;;2.25;1.50;;;;;;;;;;2104546;28;20028;-64
2023/06/04 00:08:02;;;;;;;1.50;1.40;;;;;;;;;;2104210;28;20036;-64
2023/06/04 00:09:21;;;;;;;3.63;1.35;;;;;;;;;;2104117;28;20036;-64
2023/06/04 00:10:40;;;;;;;2.05;1.20;;;;;;;;;;2104822;28;20434;-64
2023/06/04 00:11:59;;;;;;;1.48;1.23;;;;;;;;;;2104345;28;20035;-64
2023/06/04 00:13:18;;;;;;;1.50;1.40;;;;;;;;;;2105054;28;20153;-64
2023/06/04 00:14:37;;;;;;;1.70;1.10;;;;;;;;;;2104287;28;20600;-64
2023/06/04 00:15:57;;;;;;;2.92;1.20;;;;;;;;;;2103512;28;20020;-64
2023/06/04 00:17:16;;;;;;;2.00;1.48;;;;;;;;;;2100270;28;20016;-65
2023/06/04 00:18:35;;;;;;;3.00;1.33;;;;;;;;;;2103714;28;20028;-65
2023/06/04 00:19:53;;;;;;;2.35;1.55;;;;;;;;;;2104885;28;20050;-65
2023/06/04 00:21:12;;;;;;;1.10;1.02;;;;;;;;;;2103049;28;20024;-64
2023/06/04 00:22:31;;;;;;;1.23;1.10;;;;;;;;;;2103146;28;20029;-65
2023/06/04 00:23:50;;;;;;;3.83;1.50;;;;;;;;;;2103660;28;20098;-64
2023/06/04 00:25:10;;;;;;;1.70;1.35;;;;;;;;;;2104321;28;20505;-67
2023/06/04 00:26:29;;;;;;;2.13;1.30;;;;;;;;;;2104638;28;20795;-64
2023/06/04 00:27:48;;;;;;;2.58;1.50;;;;;;;;;;2102074;28;20569;-64
2023/06/04 00:29:06;;;;;;;2.15;1.40;;;;;;;;;;2104269;28;20020;-64
2023/06/04 00:30:26;;;;;;;1.52;1.20;;;;;;;;;;2104557;28;20032;-64
2023/06/04 00:31:44;;;;;;;1.63;1.23;;;;;;;;;;2104421;28;20095;-64
2023/06/04 00:33:03;;;;;;;2.67;1.50;;;;;;;;;;2104609;28;20032;-64
2023/06/04 00:34:22;;;;;;;2.10;1.50;;;;;;;;;;2105319;28;20230;-64
2023/06/04 00:35:42;;;;;;;1.83;1.40;;;;;;;;;;2102884;28;20028;-64
2023/06/04 00:37:03;;;;;;;2.60;1.25;;;;;;;;;;2103739;28;20493;-64
2023/06/04 00:38:23;;;;;;;1.50;1.15;;;;;;;;;;2103058;28;20051;-64
2023/06/04 00:39:42;;;;;;;1.17;1.13;;;;;;;;;;2105025;28;20028;-64
2023/06/04 00:41:01;;;;;;;1.15;1.15;;;;;;;;;;2104315;28;20024;-64
2023/06/04 00:42:20;;;;;;;1.40;1.30;;;;;;;;;;2103994;28;20110;-64
2023/06/04 00:43:39;;;;;;;1.52;1.42;;;;;;;;;;2104081;28;20020;-64
2023/06/04 00:44:58;;;;;;;1.10;1.10;;;;;;;;;;2103492;28;20028;-64
2023/06/04 00:46:17;;;;;;;1.75;1.63;;;;;;;;;;2104474;28;20040;-64
2023/06/04 00:47:37;;;;;;;1.42;1.30;;;;;;;;;;2104922;28;20407;-64
2023/06/04 00:48:55;;;;;;;3.08;1.48;;;;;;;;;;2103099;28;20415;-64
2023/06/04 00:50:14;;;;;;;1.30;1.20;;;;;;;;;;2104172;28;20511;-64
2023/06/04 00:51:33;;;;;;;1.58;1.48;;;;;;;;;;2105878;28;20056;-64
2023/06/04 00:52:54;;;;;;;1.80;1.70;;;;;;;;;;2105415;28;20107;-64
2023/06/04 00:54:13;;;;;;;1.60;1.40;;;;;;;;;;2103835;28;20036;-64
2023/06/04 00:55:32;;;;;;;1.90;1.30;;;;;;;;;;2104002;28;20032;-64
2023/06/04 00:56:51;;;;;;;2.53;1.40;;;;;;;;;;2103953;28;20024;-64
2023/06/04 00:58:11;;;;;;;1.65;1.50;;;;;;;;;;2104527;28;20477;-64
2023/06/04 00:59:32;;;;;;;2.50;1.40;;;;;;;;;;2104127;28;20032;-65
2023/06/04 01:00:53;;;;;;;2.28;1.33;;;;;;;;;;2104472;28;20020;-65
2023/06/04 01:02:14;;;;;;;3.25;1.35;;;;;;;;;;2104670;28;20111;-64
2023/06/04 01:03:35;;;;;;;1.58;1.48;;;;;;;;;;2104555;28;20432;-64
2023/06/04 01:05:13;;;;;;;1.58;1.48;;;;;;;;;;2103733;28;20397;-64
2023/06/04 01:06:39;;;;;;;1.60;1.40;;;;;;;;;;2103136;28;20119;-64
2023/06/04 01:07:58;;;;;;;4.30;1.42;;;;;;;;;;2103696;28;20485;-63
2023/06/04 01:09:18;;;;;;;1.70;1.38;;;;;;;;;;2104117;28;20033;-64
2023/06/04 01:10:37;;;;;;;1.90;1.50;;;;;;;;;;2104810;28;20020;-64
2023/06/04 01:12:01;;;;;;;2.33;1.35;;;;;;;;;;2104518;28;20024;-64
2023/06/04 01:13:21;;;;;;;6.72;1.80;;;;;;;;;;2102829;28;20485;-64
2023/06/04 01:14:40;;;;;;;1.20;1.10;;;;;;;;;;2104496;28;20032;-63
2023/06/04 01:16:00;;;;;;;6.85;1.30;;;;;;;;;;2104444;28;20687;-64
2023/06/04 01:17:40;;;;;;;1.38;1.27;;;;;;;;;;2105202;28;20478;-64
2023/06/04 01:19:02;;;;;;;1.63;1.52;;;;;;;;;;2105158;28;20040;-64
2023/06/04 01:20:24;;;;;;;1.52;1.42;;;;;;;;;;2103485;28;20023;-65
2023/06/04 01:21:44;;;;;;;1.30;1.20;;;;;;;;;;2102409;28;20024;-65
2023/06/04 01:23:03;;;;;;;1.67;1.48;;;;;;;;;;2103320;28;20028;-65
2023/06/04 01:24:25;;;;;;;2.03;1.25;;;;;;;;;;2104492;28;20032;-65
2023/06/04 01:25:49;;;;;;;1.27;1.20;;;;;;;;;;2103807;28;20036;-65
2023/06/04 01:27:08;;;;;;;1.58;1.42;;;;;;;;;;2104571;28;20024;-66
2023/06/04 01:28:29;;;;;;;2.15;1.40;;;;;;;;;;2103981;28;20028;-64
2023/06/04 01:29:49;;;;;;;3.40;1.10;;;;;;;;;;2103904;28;20024;-64
2023/06/04 01:31:08;;;;;;;2.45;1.55;;;;;;;;;;2104876;28;20078;-64
2023/06/04 01:32:27;;;;;;;3.17;1.35;;;;;;;;;;2103715;28;20028;-64
2023/06/04 01:33:46;;;;;;;1.77;1.33;;;;;;;;;;2104016;28;20417;-64
2023/06/04 01:35:12;;;;;;;1.73;1.10;;;;;;;;;;2104351;28;20032;-64
2023/06/04 01:36:32;;;;;;;3.55;1.25;;;;;;;;;;2104417;28;20131;-65
2023/06/04 01:37:51;;;;;;;1.70;1.33;;;;;;;;;;2100779;28;20020;-64
2023/06/04 01:39:10;;;;;;;3.13;1.15;;;;;;;;;;2103845;28;20499;-64
2023/06/04 01:40:29;;;;;;;1.20;1.10;;;;;;;;;;2102689;28;20028;-64
2023/06/04 01:41:48;;;;;;;1.58;1.10;;;;;;;;;;2103379;28;20016;-64
2023/06/04 01:43:07;;;;;;;1.85;1.20;;;;;;;;;;2103828;28;20110;-64
2023/06/04 01:44:26;;;;;;;1.17;0.98;;;;;;;;;;2104837;28;20035;-64
2023/06/04 01:45:45;;;;;;;1.23;1.13;;;;;;;;;;2103078;28;20055;-64
2023/06/04 01:47:04;;;;;;;2.80;1.30;;;;;;;;;;2103201;28;20558;-65
2023/06/04 01:48:23;;;;;;;2.35;1.40;;;;;;;;;;2104065;28;20493;-64
2023/06/04 01:49:42;;;;;;;5.72;1.67;;;;;;;;;;2104436;28;20020;-63
2023/06/04 01:51:01;;;;;;;2.75;1.40;;;;;;;;;;2104857;28;20131;-64
2023/06/04 01:52:21;;;;;;;2.78;1.55;;;;;;;;;;2104195;28;20489;-64
2023/06/04 01:53:40;;;;;;;1.17;1.00;;;;;;;;;;2102927;28;20143;-64
2023/06/04 01:54:59;;;;;;;4.05;1.38;;;;;;;;;;2104294;28;20016;-64
2023/06/04 01:56:20;;;;;;;1.98;1.33;;;;;;;;;;2104015;28;20024;-64
2023/06/04 01:57:40;;;;;;;3.08;1.17;;;;;;;;;;2103637;28;20028;-64
2023/06/04 01:59:01;;;;;;;1.60;1.13;;;;;;;;;;2102581;28;20538;-64
2023/06/04 02:00:20;;;;;;;2.58;1.23;;;;;;;;;;2103592;28;20028;-65
2023/06/04 02:01:39;;;;;;;1.45;1.25;;;;;;;;;;2102961;28;20020;-64
2023/06/04 02:02:59;;;;;;;2.08;1.88;;;;;;;;;;2103205;28;20016;-65
2023/06/04 02:04:18;;;;;;;3.38;1.50;;;;;;;;;;2102302;28;20032;-65
2023/06/04 02:05:37;;;;;;;1.45;1.25;;;;;;;;;;2103462;28;20016;-65
2023/06/04 02:06:59;;;;;;;4.88;1.50;;;;;;;;;;2104783;28;20021;-65
2023/06/04 02:08:18;;;;;;;1.92;1.40;;;;;;;;;;2104032;28;20041;-65
2023/06/04 02:09:37;;;;;;;1.42;1.25;;;;;;;;;;2103164;28;20565;-66
2023/06/04 02:10:56;;;;;;;2.58;1.63;;;;;;;;;;2104372;28;20552;-63
2023/06/04 02:12:15;;;;;;;2.03;1.48;;;;;;;;;;2103953;28;20038;-68
2023/06/04 02:13:34;;;;;;;2.42;1.83;;;;;;;;;;2104597;28;20029;-64
2023/06/04 02:14:53;;;;;;;2.17;1.70;;;;;;;;;;2104656;28;20032;-65
2023/06/04 02:16:12;;;;;;;1.70;1.60;;;;;;;;;;2103733;28;20536;-65
2023/06/04 02:17:37;;;;;;;2.63;1.50;;;;;;;;;;2103840;28;20062;-64
2023/06/04 02:18:56;;;;;;;1.38;1.27;;;;;;;;;;2104138;28;21042;-65
2023/06/04 02:20:15;;;;;;;2.55;1.33;;;;;;;;;;2103193;28;20052;-65
2023/06/04 02:21:35;;;;;;;1.48;1.30;;;;;;;;;;2104733;28;20036;-65
2023/06/04 02:22:55;;;;;;;0.95;0.95;;;;;;;;;;2104118;28;20099;-65
2023/06/04 02:24:13;;;;;;;3.72;1.30;;;;;;;;;;2104907;28;20110;-65
2023/06/04 02:25:32;;;;;;;1.40;0.90;;;;;;;;;;2101472;28;20061;-64
2023/06/04 02:26:51;;;;;;;1.33;0.68;;;;;;;;;;2102696;28;20028;-65
2023/06/04 02:28:10;;;;;;;1.27;1.17;;;;;;;;;;2102418;28;20032;-63
2023/06/04 02:29:29;;;;;;;2.53;1.00;;;;;;;;;;2104314;28;20029;-64
2023/06/04 02:30:48;;;;;;;1.15;0.98;;;;;;;;;;2100174;28;20419;-65
2023/06/04 02:32:08;;;;;;;1.90;0.90;;;;;;;;;;2103411;28;20024;-65
2023/06/04 02:33:27;;;;;;;1.10;0.98;;;;;;;;;;2103444;28;20113;-64
2023/06/04 02:34:46;;;;;;;0.90;0.70;;;;;;;;;;2104055;28;20106;-64
2023/06/04 02:36:05;;;;;;;0.68;0.68;;;;;;;;;;2103478;28;20540;-65
2023/06/04 02:37:24;;;;;;;0.88;0.82;;;;;;;;;;2103964;28;20024;-64
2023/06/04 02:38:43;;;;;;;1.05;0.80;;;;;;;;;;2102686;28;20024;-64
2023/06/04 02:40:02;;;;;;;0.60;0.60;;;;;;;;;;2104442;28;20017;-64
2023/06/04 02:41:22;;;;;;;1.40;0.70;;;;;;;;;;2101235;28;20032;-64
2023/06/04 02:42:41;;;;;;;2.45;0.60;;;;;;;;;;2104090;28;20012;-64
2023/06/04 02:44:00;;;;;;;0.95;0.50;;;;;;;;;;2104743;28;20130;-64
2023/06/04 02:45:19;;;;;;;0.70;0.70;;;;;;;;;;2103718;28;20052;-64
2023/06/04 02:46:38;;;;;;;2.70;0.80;;;;;;;;;;2103738;28;20028;-65
2023/06/04 02:47:57;;;;;;;1.85;0.70;;;;;;;;;;2103457;28;20028;-65
2023/06/04 02:49:16;;;;;;;0.73;0.60;;;;;;;;;;2103879;28;20032;-65
2023/06/04 02:50:35;;;;;;;1.27;0.70;;;;;;;;;;2103676;28;20116;-64
2023/06/04 02:51:54;;;;;;;2.85;0.60;;;;;;;;;;2104578;28;20059;-65
2023/06/04 02:53:13;;;;;;;0.65;0.45;;;;;;;;;;2106706;28;20040;-65
2023/06/04 02:54:32;;;;;;;0.55;0.55;;;;;;;;;;2104482;28;20114;-65
2023/06/04 02:55:52;;;;;;;1.17;0.50;;;;;;;;;;2105203;28;20024;-65
2023/06/04 02:57:11;;;;;;;1.98;0.70;;;;;;;;;;2105859;28;20477;-64
2023/06/04 02:58:31;;;;;;;1.65;0.43;;;;;;;;;;2102665;28;20107;-65
2023/06/04 02:59:51;;;;;;;0.65;0.50;;;;;;;;;;2103511;28;20095;-64
2023/06/04 03:01:17;;;;;;;1.25;0.75;;;;;;;;;;2105076;28;20028;-64
2023/06/04 03:02:36;;;;;;;0.57;0.57;;;;;;;;;;2106077;28;20422;-64
2023/06/04 03:03:55;;;;;;;0.88;0.40;;;;;;;;;;2105627;28;20028;-64
2023/06/04 03:05:15;;;;;;;2.15;0.50;;;;;;;;;;2103645;28;20087;-64
2023/06/04 03:06:34;;;;;;;1.35;0.63;;;;;;;;;;2104188;28;20491;-64
2023/06/04 03:07:53;;;;;;;1.70;0.63;;;;;;;;;;2106555;28;20039;-64
2023/06/04 03:09:12;;;;;;;2.50;0.50;;;;;;;;;;2105422;28;20494;-64
2023/06/04 03:10:31;;;;;;;0.30;0.30;;;;;;;;;;2104625;28;20036;-65
2023/06/04 03:11:50;;;;;;;1.13;0.30;;;;;;;;;;2104628;28;20044;-64
2023/06/04 03:13:09;;;;;;;1.45;0.52;;;;;;;;;;2105703;28;20040;-65
2023/06/04 03:14:32;;;;;;;0.77;0.45;;;;;;;;;;2106991;28;20032;-65
2023/06/04 03:15:51;;;;;;;1.63;0.40;;;;;;;;;;2105271;28;20060;-64
2023/06/04 03:17:10;;;;;;;0.68;0.40;;;;;;;;;;2105444;28;20031;-68
2023/06/04 03:18:29;;;;;;;0.70;0.30;;;;;;;;;;2105155;28;20998;-64
2023/06/04 03:19:48;;;;;;;0.50;0.50;;;;;;;;;;2105349;28;20416;-68
2023/06/04 03:21:07;;;;;;;1.55;0.40;;;;;;;;;;2105693;28;20020;-65
2023/06/04 03:22:26;;;;;;;0.50;0.40;;;;;;;;;;2105192;28;20028;-64
2023/06/04 03:23:45;;;;;;;1.73;0.70;;;;;;;;;;2104533;28;20444;-65
2023/06/04 03:25:05;;;;;;;0.55;0.55;;;;;;;;;;2104980;28;20044;-66
2023/06/04 03:26:24;;;;;;;1.23;0.38;;;;;;;;;;2104819;28;20055;-65
2023/06/04 03:27:43;;;;;;;1.27;0.43;;;;;;;;;;2105446;28;20445;-65
2023/06/04 03:29:02;;;;;;;0.63;0.57;;;;;;;;;;2104674;28;20366;-65
2023/06/04 03:30:21;;;;;;;0.65;0.40;;;;;;;;;;2104301;28;20032;-65
2023/06/04 03:31:40;;;;;;;0.90;0.40;;;;;;;;;;2105464;28;20104;-64
2023/06/04 03:33:00;;;;;;;0.45;0.40;;;;;;;;;;2106507;28;20036;-64
2023/06/04 03:34:18;;;;;;;0.50;0.40;;;;;;;;;;2104072;28;20028;-64
2023/06/04 03:35:40;;;;;;;0.80;0.45;;;;;;;;;;2104553;28;20032;-64
2023/06/04 03:36:59;;;;;;;0.57;0.50;;;;;;;;;;2105443;28;20095;-64
2023/06/04 03:38:21;;;;;;;1.52;0.55;;;;;;;;;;2106397;28;20028;-64
2023/06/04 03:39:40;;;;;;;0.68;0.57;;;;;;;;;;2106010;28;20489;-64
2023/06/04 03:41:00;;;;;;;2.42;0.60;;;;;;;;;;2104275;28;20102;-64
2023/06/04 03:42:19;;;;;;;1.58;0.35;;;;;;;;;;2104331;28;20489;-65
2023/06/04 03:43:37;;;;;;;0.50;0.40;;;;;;;;;;2105436;28;20032;-65
2023/06/04 03:44:58;;;;;;;1.85;0.40;;;;;;;;;;2107018;28;20435;-64
2023/06/04 03:46:17;;;;;;;0.30;0.30;;;;;;;;;;2104457;28;20032;-64
2023/06/04 03:47:36;;;;;;;0.47;0.40;;;;;;;;;;2102759;28;20107;-64
2023/06/04 03:48:54;;;;;;;0.75;0.40;;;;;;;;;;2104731;28;20035;-64
2023/06/04 03:50:13;;;;;;;1.55;0.43;;;;;;;;;;2105518;28;20552;-65
2023/06/04 03:51:32;;;;;;;0.32;0.32;;;;;;;;;;2105227;28;20037;-64
2023/06/04 03:52:51;;;;;;;1.52;0.40;;;;;;;;;;2103358;28;20059;-65
2023/06/04 03:54:11;;;;;;;0.57;0.52;;;;;;;;;;2104089;28;20024;-65
2023/06/04 03:55:31;;;;;;;0.77;0.40;;;;;;;;;;2105055;28;20440;-64
2023/06/04 03:56:51;;;;;;;0.82;0.60;;;;;;;;;;2106572;28;20051;-65
2023/06/04 03:58:11;;;;;;;3.40;0.60;;;;;;;;;;2104937;28;20158;-64
2023/06/04 03:59:30;;;;;;;0.80;0.50;;;;;;;;;;2104622;28;20056;-65
2023/06/04 04:00:49;;;;;;;0.50;0.50;;;;;;;;;;2104381;28;20017;-65
2023/06/04 04:02:08;;;;;;;0.50;0.30;;;;;;;;;;2105707;28;20024;-65
2023/06/04 04:03:30;;;;;;;0.77;0.68;;;;;;;;;;2105111;28;20546;-65
2023/06/04 04:04:50;;;;;;;;;;;;;;;;;;2103410;28;20040;-65
2023/06/04 04:06:10;;;;;;;0.65;0.50;;;;;;;;;;2106154;28;19908;-65
2023/06/04 04:07:29;;;;;;;0.40;0.40;;;;;;;;;;2104979;28;20040;-65
2023/06/04 04:08:48;;;;;;;0.70;0.50;;;;;;;;;;2103427;28;20972;-65
2023/06/04 04:10:07;;;;;;;1.35;0.43;;;;;;;;;;2103355;28;20032;-65
2023/06/04 04:11:26;;;;;;;0.70;0.70;;;;;;;;;;2104082;28;20028;-64
2023/06/04 04:12:45;;;;;;;0.32;0.32;;;;;;;;;;2104707;28;20102;-65
2023/06/04 04:14:04;;;;;;;1.35;0.50;;;;;;;;;;2105399;28;20020;-65
2023/06/04 04:15:23;;;;;;;0.73;0.50;;;;;;;;;;2105121;28;20032;-64
2023/06/04 04:16:42;;;;;;;1.00;0.40;;;;;;;;;;2103864;28;20044;-65
2023/06/04 04:18:01;;;;;;;0.40;0.40;;;;;;;;;;2106544;28;20024;-65
2023/06/04 04:19:20;;;;;;;1.38;0.40;;;;;;;;;;2105395;28;20029;-65
2023/06/04 04:20:39;;;;;;;1.00;0.32;;;;;;;;;;2104619;28;20024;-65
2023/06/04 04:21:58;;;;;;;0.63;0.40;;;;;;;;;;2103900;28;20025;-64
2023/06/04 04:23:17;;;;;;;1.20;0.30;;;;;;;;;;2105059;28;20111;-65
2023/06/04 04:24:37;;;;;;;0.75;0.40;;;;;;;;;;2105414;28;20024;-64
2023/06/04 04:25:58;;;;;;;0.82;0.45;;;;;;;;;;2105115;28;20509;-65
2023/06/04 04:27:17;;;;;;;0.30;0.30;;;;;;;;;;2103607;28;20040;-64
2023/06/04 04:28:36;;;;;;;0.88;0.45;;;;;;;;;;2103831;28;20103;-63
2023/06/04 04:29:55;;;;;;;0.30;0.30;;;;;;;;;;2104593;28;20396;-65
2023/06/04 04:31:14;;;;;;;0.50;0.40;;;;;;;;;;2105589;28;20032;-65
2023/06/04 04:32:33;;;;;;;1.25;0.45;;;;;;;;;;2104382;28;20427;-65
2023/06/04 04:33:53;;;;;;;0.47;0.40;;;;;;;;;;2104611;28;20040;-65
2023/06/04 04:35:12;;;;;;;0.85;0.50;;;;;;;;;;2105335;28;20059;-65
2023/06/04 04:36:32;;;;;;;0.30;0.30;;;;;;;;;;2106171;28;20044;-65
2023/06/04 04:37:51;;;;;;;1.25;0.50;;;;;;;;;;2105491;28;20036;-65
2023/06/04 04:39:10;;;;;;;0.70;0.32;;;;;;;;;;2104029;28;20520;-65
2023/06/04 04:40:30;;;;;;;0.43;0.30;;;;;;;;;;2104290;28;20024;-65
2023/06/04 04:41:49;;;;;;;0.50;0.50;;;;;;;;;;2105417;28;20388;-63
2023/06/04 04:43:08;;;;;;;0.40;0.40;;;;;;;;;;2105340;28;20028;-63
2023/06/04 04:44:26;;;;;;;0.45;0.40;;;;;;;;;;2103185;28;20469;-65
2023/06/04 04:45:45;;;;;;;0.50;0.40;;;;;;;;;;2104299;28;20024;-64
2023/06/04 04:47:04;;;;;;;1.75;0.80;;;;;;;;;;2104081;28;20032;-64
2023/06/04 04:48:24;;;;;;;0.85;0.30;;;;;;;;;;2105351;28;20035;-64
2023/06/04 04:49:43;;;;;;;2.17;0.40;;;;;;;;;;2103628;28;20106;-65
2023/06/04 04:51:02;;;;;;;0.20;0.20;;;;;;;;;;2104097;28;20771;-64
2023/06/04 04:52:21;;;;;;;1.95;0.30;;;;;;;;;;2105161;28;20020;-65
2023/06/04 04:53:40;;;;;;;1.35;0.65;;;;;;;;;;2106280;28;20020;-64
2023/06/04 04:54:59;;;;;;;1.33;0.30;;;;;;;;;;2105251;28;20477;-65
2023/06/04 04:56:18;;;;;;;0.30;0.30;;;;;;;;;;2103902;28;20059;-65
2023/06/04 04:57:36;;;;;;;1.35;0.35;;;;;;;;;;2104324;28;20044;-65
2023/06/04 04:58:55;;;;;;;1.20;0.40;;;;;;;;;;2105247;28;20032;-65
2023/06/04 05:00:15;;;;;;;0.50;0.47;;;;;;;;;;2105863;28;20059;-65
2023/06/04 05:01:34;;;;;;;2.55;0.43;;;;;;;;;;2103470;28;20020;-65
2023/06/04 05:02:53;;;;;;;0.47;0.20;;;;;;;;;;2102314;28;20024;-64
2023/06/04 05:04:12;;;;;;;0.30;0.30;;;;;;;;;;2105410;28;20458;-65
2023/06/04 05:05:31;;;;;;;0.80;0.30;;;;;;;;;;2103949;28;20040;-65
2023/06/04 05:06:50;;;;;;;0.22;0.20;;;;;;;;;;2103197;28;20482;-65
2023/06/04 05:08:10;;;;;;;0.43;0.30;;;;;;;;;;2103835;28;20063;-64
2023/06/04 05:09:29;;;;;;;1.30;0.30;;;;;;;;;;2105335;28;20036;-65
2023/06/04 05:10:48;;;;;;;0.30;0.30;;;;;;;;;;2105589;28;20106;-64
2023/06/04 05:12:08;;;;;;;0.20;0.20;;;;;;;;;;2104368;28;20107;-65
2023/06/04 05:13:27;;;;;;;1.08;0.30;;;;;;;;;;2105279;28;20036;-65
2023/06/04 05:14:46;;;;;;;0.50;0.20;;;;;;;;;;2105475;28;20028;-65
2023/06/04 05:16:06;;;;;;;0.47;0.47;;;;;;;;;;2105857;28;20471;-64
2023/06/04 05:17:29;;;;;;;5.07;0.38;;;;;;;;;;2103760;28;20050;-64
2023/06/04 05:18:51;;;;;;;1.48;0.43;;;;;;;;;;2104620;28;20083;-64
2023/06/04 05:20:11;;;;;;;0.57;0.30;;;;;;;;;;2104403;28;20059;-67
2023/06/04 05:21:30;;;;;;;1.45;0.20;;;;;;;;;;2105209;28;20024;-65
2023/06/04 05:22:49;;;;;;;0.73;0.40;;;;;;;;;;2104397;28;20054;-65
2023/06/04 05:24:10;;;;;;;5.80;0.55;;;;;;;;;;2103261;28;20400;-65
2023/06/04 05:25:28;;;;;;;0.57;0.32;;;;;;;;;;2103150;28;20456;-65
2023/06/04 05:26:48;;;;;;;0.28;0.28;;;;;;;;;;2104413;28;20024;-65
2023/06/04 05:28:07;;;;;;;0.30;0.30;;;;;;;;;;2104672;28;20024;-64
2023/06/04 05:29:26;;;;;;;0.32;0.32;;;;;;;;;;2104753;28;20040;-65
2023/06/04 05:30:48;;;;;;;1.55;0.40;;;;;;;;;;2102548;28;20388;-65
2023/06/04 05:32:08;;;;;;;0.68;0.30;;;;;;;;;;2103059;28;20032;-65
2023/06/04 05:33:27;;;;;;;0.60;0.20;;;;;;;;;;2103602;28;20024;-65
2023/06/04 05:34:47;;;;;;;0.47;0.30;;;;;;;;;;2104717;28;20055;-65
2023/06/04 05:36:05;;;;;;;0.55;0.40;;;;;;;;;;2103175;28;20497;-64
2023/06/04 05:37:26;;;;;;;0.22;0.22;;;;;;;;;;2103820;28;20063;-64
2023/06/04 05:38:45;;;;;;;0.20;0.20;;;;;;;;;;2103906;28;20963;-64
2023/06/04 05:40:05;;;;;;;0.75;0.30;;;;;;;;;;2105284;28;20495;-64
2023/06/04 05:41:25;;;;;;;0.43;0.40;;;;;;;;;;2105596;28;20046;-64
2023/06/04 05:42:44;;;;;;;0.10;0.10;;;;;;;;;;2103306;28;20020;-65
2023/06/04 05:44:04;;;;;;;2.42;0.30;;;;;;;;;;2103104;28;20036;-65
2023/06/04 05:45:23;;;;;;;0.85;0.30;;;;;;;;;;2103806;28;20298;-65
2023/06/04 05:46:42;;;;;;;0.17;0.17;;;;;;;;;;2104961;28;20388;-65
2023/06/04 05:48:00;;;;;;;0.30;0.20;;;;;;;;;;2103164;28;20024;-65
2023/06/04 05:49:19;;;;;;;0.63;0.20;;;;;;;;;;2104213;28;20055;-64
2023/06/04 05:50:38;;;;;;;2.75;0.30;;;;;;;;;;2103160;28;20492;-65
2023/06/04 05:51:57;;;;;;;2.92;0.35;;;;;;;;;;2104805;28;20505;-65
2023/06/04 05:53:16;;;;;;;0.22;0.20;;;;;;;;;;2105196;28;20040;-64
2023/06/04 05:54:37;;;;;;;0.52;0.20;;;;;;;;;;2102388;28;20040;-64
2023/06/04 05:55:56;;;;;;;3.85;0.47;;;;;;;;;;2103472;28;20115;-66
2023/06/04 05:57:15;;;;;;;0.40;0.40;;;;;;;;;;2105128;28;20024;-65
2023/06/04 05:58:34;;;;;;;2.50;0.35;;;;;;;;;;2105449;28;20020;-65
2023/06/04 05:59:53;;;;;;;0.25;0.20;;;;;;;;;;2105167;28;20024;-65
2023/06/04 06:01:12;;;;;;;0.17;0.10;;;;;;;;;;2103270;28;20031;-64
2023/06/04 06:02:32;;;;;;;0.20;0.10;;;;;;;;;;2104565;28;20020;-65
2023/06/04 06:03:51;;;;;;;0.20;0.20;;;;;;;;;;2103611;28;20024;-65
2023/06/04 06:05:10;;;;;;;0.43;0.10;;;;;;;;;;2103228;28;20044;-64
2023/06/04 06:06:29;;;;;;;1.85;0.22;;;;;;;;;;2102863;28;20060;-65
2023/06/04 06:07:48;;;;;;;0.52;0.30;;;;;;;;;;2104879;28;20028;-64
2023/06/04 06:09:08;;;;;;;1.08;0.20;;;;;;;;;;2103814;28;20052;-64
2023/06/04 06:10:28;;;;;;;0.13;0.10;;;;;;;;;;2103074;28;20060;-64
2023/06/04 06:11:47;;;;;;;0.40;0.20;;;;;;;;;;2102074;28;20032;-65
2023/06/04 06:13:05;;;;;;;0.15;0.10;;;;;;;;;;2103526;28;20040;-65
2023/06/04 06:14:24;;;;;;;3.70;0.20;;;;;;;;;;2105148;28;20027;-65
2023/06/04 06:15:44;;;;;;;1.00;0.30;;;;;;;;;;2108448;28;20031;-65
2023/06/04 06:17:02;;;;;;;0.75;0.20;;;;;;;;;;2105321;28;20504;-65
2023/06/04 06:18:21;;;;;;;0.98;0.40;;;;;;;;;;2104419;28;20032;-64
2023/06/04 06:19:40;;;;;;;0.20;0.20;;;;;;;;;;2105523;28;20020;-64
2023/06/04 06:20:59;;;;;;;1.10;0.20;;;;;;;;;;2104278;28;20024;-64
2023/06/04 06:22:18;;;;;;;2.90;0.30;;;;;;;;;;2103054;28;20029;-64
2023/06/04 06:23:37;;;;;;;0.30;0.30;;;;;;;;;;2103313;28;20020;-64
2023/06/04 06:24:56;;;;;;;0.80;0.38;;;;;;;;;;2104438;28;20036;-66
2023/06/04 06:26:15;;;;;;;0.13;0.13;;;;;;;;;;2104225;28;20036;-64
2023/06/04 06:27:35;;;;;;;0.20;0.10;;;;;;;;;;2103559;28;20493;-65
2023/06/04 06:28:53;;;;;;;3.20;0.20;;;;;;;;;;2102515;28;20046;-64
2023/06/04 06:30:12;;;;;;;0.28;0.25;;;;;;;;;;2103769;28;20099;-65
2023/06/04 06:31:31;;;;;;;0.25;0.20;;;;;;;;;;2103868;28;20036;-64
2023/06/04 06:32:51;;;;;;;0.43;0.13;;;;;;;;;;2103443;28;20024;-64
2023/06/04 06:34:10;;;;;;;0.30;0.30;;;;;;;;;;2104230;28;20504;-64
2023/06/04 06:35:28;;;;;;;0.68;0.30;;;;;;;;;;2103607;28;20025;-64
2023/06/04 06:36:48;;;;;;;0.30;0.10;;;;;;;;;;2105052;28;20119;-64
2023/06/04 06:38:07;;;;;;;0.35;0.10;;;;;;;;;;2104534;28;20024;-64
2023/06/04 06:39:26;;;;;;;0.38;0.17;;;;;;;;;;2103216;28;20040;-64
2023/06/04 06:40:45;;;;;;;1.38;0.15;;;;;;;;;;2102515;28;20017;-65
2023/06/04 06:42:04;;;;;;;0.17;0.10;;;;;;;;;;2103639;28;20065;-64
2023/06/04 06:43:23;;;;;;;0.47;0.20;;;;;;;;;;2104795;28;20032;-65
2023/06/04 06:44:42;;;;;;;0.05;0.05;;;;;;;;;;2104086;28;20020;-64
2023/06/04 06:46:01;;;;;;;0.08;0.08;;;;;;;;;;2103105;28;20135;-65
2023/06/04 06:47:20;;;;;;;1.30;0.20;;;;;;;;;;2102178;28;20028;-64
2023/06/04 06:48:39;;;;;;;0.17;0.17;;;;;;;;;;2104692;28;20036;-64
2023/06/04 06:49:58;;;;;;;1.55;0.17;;;;;;;;;;2105045;28;20028;-67
2023/06/04 06:51:17;;;;;;;0.30;0.17;;;;;;;;;;2102818;28;20032;-64
2023/06/04 06:52:36;;;;;;;1.13;0.30;;;;;;;;;;2102873;28;20029;-64
2023/06/04 06:53:56;;;;;;;1.90;0.20;;;;;;;;;;2104593;28;20071;-64
2023/06/04 06:55:15;;;;;;;2.40;0.55;;;;;;;;;;2105064;28;20032;-64
2023/06/04 06:56:34;;;;;;;0.70;0.20;;;;;;;;;;2103911;28;20040;-65
2023/06/04 06:57:53;;;;;;;0.52;0.20;;;;;;;;;;2104731;28;20028;-65
2023/06/04 06:59:12;;;;;;;2.25;0.95;;;;;;;;;;2103437;28;20496;-65
2023/06/04 07:00:31;;;;;;;0.38;0.30;;;;;;;;;;2104849;28;20040;-65
2023/06/04 07:01:50;;;;;;;2.53;0.30;;;;;;;;;;2103825;28;20642;-65
2023/06/04 07:03:09;;;;;;;1.42;0.63;;;;;;;;;;2102592;28;20496;-64
2023/06/04 07:04:28;;;;;;;0.20;0.20;;;;;;;;;;2103981;28;20493;-64
2023/06/04 07:05:46;;;;;;;0.75;0.13;;;;;;;;;;2104427;28;20027;-64
2023/06/04 07:07:07;;;;;;;0.10;0.10;;;;;;;;;;2102369;28;20103;-65
2023/06/04 07:08:26;;;;;;;0.10;0.05;;;;;;;;;;2103004;28;20040;-70
2023/06/04 07:09:45;;;;;;;0.13;0.10;;;;;;;;;;2103075;28;20025;-65
2023/06/04 07:11:04;;;;;;;0.73;0.20;;;;;;;;;;2104146;28;20028;-65
2023/06/04 07:12:23;;;;;;;1.65;0.20;;;;;;;;;;2105062;28;20452;-65
2023/06/04 07:13:42;;;;;;;0.10;0.10;;;;;;;;;;2103369;28;20016;-66
2023/06/04 07:15:01;;;;;;;0.20;0.20;;;;;;;;;;2103760;28;20047;-65
2023/06/04 07:16:20;;;;;;;0.17;0.10;;;;;;;;;;2104897;28;20028;-65
2023/06/04 07:17:39;;;;;;;0.08;0.08;;;;;;;;;;2105114;28;20021;-64
2023/06/04 07:18:58;;;;;;;0.10;0.10;;;;;;;;;;2101841;28;20017;-65
2023/06/04 07:20:17;;;;;;;0.20;0.10;;;;;;;;;;2103436;28;20110;-65
2023/06/04 07:21:36;;;;;;;0.90;0.10;;;;;;;;;;2103640;28;20024;-65
2023/06/04 07:22:55;;;;;;;0.57;0.10;;;;;;;;;;2104573;28;20053;-64
2023/06/04 07:24:14;;;;;;;0.35;0.28;;;;;;;;;;2103319;28;20036;-64
2023/06/04 07:25:33;;;;;;;0.40;0.20;;;;;;;;;;2102694;28;20796;-64
2023/06/04 07:26:52;;;;;;;0.13;0.10;;;;;;;;;;2103249;28;20028;-65
2023/06/04 07:28:11;;;;;;;0.13;0.10;;;;;;;;;;2104795;28;20036;-64
2023/06/04 07:29:30;;;;;;;0.68;0.20;;;;;;;;;;2104204;28;20115;-65
2023/06/04 07:30:50;;;;;;;0.28;0.20;;;;;;;;;;2103450;28;20032;-64
2023/06/04 07:32:09;;;;;;;0.35;0.25;;;;;;;;;;2104783;28;20032;-64
2023/06/04 07:33:28;;;;;;;0.20;0.20;;;;;;;;;;2103197;28;20094;-64
2023/06/04 07:34:47;;;;;;;1.25;0.10;;;;;;;;;;2104882;28;20036;-65
2023/06/04 07:36:06;;;;;;;0.20;0.10;;;;;;;;;;2102899;28;20447;-64
2023/06/04 07:37:25;;;;;;;0.40;0.10;;;;;;;;;;2102934;28;20992;-66
2023/06/04 07:38:44;;;;;;;1.05;0.20;;;;;;;;;;2103489;28;20024;-64
2023/06/04 07:40:03;;;;;;;0.20;0.20;;;;;;;;;;2105419;28;20028;-66
2023/06/04 07:41:22;;;;;;;0.10;0.10;;;;;;;;;;2104653;28;20430;-64
2023/06/04 07:42:42;;;;;;;0.40;0.20;;;;;;;;;;2104031;28;20106;-65
2023/06/04 07:44:01;;;;;;;2.00;0.20;;;;;;;;;;2104468;28;20389;-64
2023/06/04 07:45:20;;;;;;;0.30;0.20;;;;;;;;;;2105597;28;20028;-64
2023/06/04 07:46:39;;;;;;;0.82;0.20;;;;;;;;;;2106045;28;20028;-64
2023/06/04 07:47:57;;;;;;;0.20;0.20;;;;;;;;;;2105196;28;20031;-65
2023/06/04 07:49:16;;;;;;;0.10;0.10;;;;;;;;;;2104138;28;20107;-64
2023/06/04 07:50:36;;;;;;;0.32;0.20;;;;;;;;;;2104957;28;20456;-65
2023/06/04 07:51:55;;;;;;;2.20;0.40;;;;;;;;;;2106196;28;20032;-64
2023/06/04 07:53:14;;;;;;;3.30;0.38;;;;;;;;;;2106152;28;20032;-64
2023/06/04 07:54:33;;;;;;;0.30;0.20;;;;;;;;;;2103459;28;20028;-64
2023/06/04 07:55:52;;;;;;;1.55;0.20;;;;;;;;;;2103761;28;20020;-65